sensor_id;sensor_type;location;lat;lon;timestamp;P1;durP1;ratioP1;P2;durP2;ratioP2
47455;SDS011;33202;48.512;-2.780;2024-03-22T00:00:54;15.48;;;9.25;;
47455;SDS011;33202;48.512;-2.780;2024-03-22T00:03:20;11.90;;;8.15;;
47455;SDS011;33202;48.512;-2.780;2024-03-22T00:05:46;9.98;;;7.45;;
47455;SDS011;33202;48.512;-2.780;2024-03-22T00:08:12;10.52;;;7.50;;
47455;SDS011;33202;48.512;-2.780;2024-03-22T00:10:38;11.63;;;8.50;;
47455;SDS011;33202;48.512;-2.780;2024-03-22T00:13:04;11.70;;;8.00;;
47455;SDS011;33202;48.512;-2.780;2024-03-22T00:15:30;11.10;;;7.80;;
47455;SDS011;33202;48.512;-2.780;2024-03-22T00:17:56;12.32;;;7.68;;
47455;SDS011;33202;48.512;-2.780;2024-03-22T00:20:22;11.75;;;7.88;;
47455;SDS011;33202;48.512;-2.780;2024-03-22T00:22:48;11.82;;;7.72;;
47455;SDS011;33202;48.512;-2.780;2024-03-22T00:25:14;11.68;;;8.68;;
47455;SDS011;33202;48.512;-2.780;2024-03-22T00:27:40;12.75;;;8.35;;
47455;SDS011;33202;48.512;-2.780;2024-03-22T00:30:06;15.98;;;9.10;;
47455;SDS011;33202;48.512;-2.780;2024-03-22T00:32:33;12.65;;;8.55;;
47455;SDS011;33202;48.512;-2.780;2024-03-22T00:34:58;12.75;;;7.95;;
47455;SDS011;33202;48.512;-2.780;2024-03-22T00:37:24;13.70;;;8.90;;
47455;SDS011;33202;48.512;-2.780;2024-03-22T00:39:50;12.90;;;9.23;;
47455;SDS011;33202;48.512;-2.780;2024-03-22T00:42:16;12.30;;;9.20;;
47455;SDS011;33202;48.512;-2.780;2024-03-22T00:44:42;12.55;;;8.95;;
47455;SDS011;33202;48.512;-2.780;2024-03-22T00:47:08;11.77;;;8.65;;
47455;SDS011;33202;48.512;-2.780;2024-03-22T00:49:34;11.82;;;8.50;;
47455;SDS011;33202;48.512;-2.780;2024-03-22T00:52:00;10.48;;;7.72;;
47455;SDS011;33202;48.512;-2.780;2024-03-22T00:54:27;11.73;;;8.55;;
47455;SDS011;33202;48.512;-2.780;2024-03-22T00:56:53;11.50;;;8.55;;
47455;SDS011;33202;48.512;-2.780;2024-03-22T00:59:19;11.55;;;8.02;;
47455;SDS011;33202;48.512;-2.780;2024-03-22T01:01:45;11.85;;;8.52;;
47455;SDS011;33202;48.512;-2.780;2024-03-22T01:04:11;12.73;;;9.32;;
47455;SDS011;33202;48.512;-2.780;2024-03-22T01:06:37;11.80;;;8.48;;
47455;SDS011;33202;48.512;-2.780;2024-03-22T01:09:04;11.32;;;8.23;;
47455;SDS011;33202;48.512;-2.780;2024-03-22T01:11:31;12.98;;;9.10;;
47455;SDS011;33202;48.512;-2.780;2024-03-22T01:13:57;12.02;;;8.82;;
47455;SDS011;33202;48.512;-2.780;2024-03-22T01:16:23;11.80;;;8.57;;
47455;SDS011;33202;48.512;-2.780;2024-03-22T01:18:49;11.77;;;8.77;;
47455;SDS011;33202;48.512;-2.780;2024-03-22T01:21:15;10.48;;;7.68;;
47455;SDS011;33202;48.512;-2.780;2024-03-22T01:23:41;11.40;;;7.72;;
47455;SDS011;33202;48.512;-2.780;2024-03-22T01:26:07;11.32;;;8.18;;
47455;SDS011;33202;48.512;-2.780;2024-03-22T01:28:33;10.18;;;7.57;;
47455;SDS011;33202;48.512;-2.780;2024-03-22T01:30:59;11.68;;;7.28;;
47455;SDS011;33202;48.512;-2.780;2024-03-22T01:33:25;12.10;;;7.95;;
47455;SDS011;33202;48.512;-2.780;2024-03-22T01:35:51;11.77;;;8.57;;
47455;SDS011;33202;48.512;-2.780;2024-03-22T01:38:17;9.05;;;6.97;;
47455;SDS011;33202;48.512;-2.780;2024-03-22T01:40:43;10.80;;;7.85;;
47455;SDS011;33202;48.512;-2.780;2024-03-22T01:43:09;12.18;;;8.95;;
47455;SDS011;33202;48.512;-2.780;2024-03-22T01:45:35;13.50;;;8.93;;
47455;SDS011;33202;48.512;-2.780;2024-03-22T01:48:01;11.30;;;7.97;;
47455;SDS011;33202;48.512;-2.780;2024-03-22T01:50:28;11.15;;;8.57;;
47455;SDS011;33202;48.512;-2.780;2024-03-22T01:52:55;11.17;;;8.43;;
47455;SDS011;33202;48.512;-2.780;2024-03-22T01:55:21;10.20;;;7.40;;
47455;SDS011;33202;48.512;-2.780;2024-03-22T01:57:47;10.57;;;7.28;;
47455;SDS011;33202;48.512;-2.780;2024-03-22T02:24:42;10.82;;;8.18;;
47455;SDS011;33202;48.512;-2.780;2024-03-22T02:27:08;9.95;;;7.65;;
47455;SDS011;33202;48.512;-2.780;2024-03-22T02:29:34;10.05;;;7.40;;
47455;SDS011;33202;48.512;-2.780;2024-03-22T02:32:00;10.50;;;7.63;;
47455;SDS011;33202;48.512;-2.780;2024-03-22T02:34:26;9.90;;;7.90;;
47455;SDS011;33202;48.512;-2.780;2024-03-22T02:36:52;11.35;;;8.27;;
47455;SDS011;33202;48.512;-2.780;2024-03-22T02:39:18;9.85;;;7.20;;
47455;SDS011;33202;48.512;-2.780;2024-03-22T02:41:44;9.80;;;7.10;;
47455;SDS011;33202;48.512;-2.780;2024-03-22T02:44:10;10.52;;;7.70;;
47455;SDS011;33202;48.512;-2.780;2024-03-22T02:46:36;9.50;;;7.43;;
47455;SDS011;33202;48.512;-2.780;2024-03-22T02:49:02;10.13;;;8.05;;
47455;SDS011;33202;48.512;-2.780;2024-03-22T02:51:28;12.70;;;8.95;;
47455;SDS011;33202;48.512;-2.780;2024-03-22T02:53:54;11.63;;;8.65;;
47455;SDS011;33202;48.512;-2.780;2024-03-22T02:56:20;9.88;;;7.82;;
47455;SDS011;33202;48.512;-2.780;2024-03-22T02:58:46;10.15;;;7.82;;
47455;SDS011;33202;48.512;-2.780;2024-03-22T03:01:12;9.70;;;7.68;;
47455;SDS011;33202;48.512;-2.780;2024-03-22T03:03:38;10.65;;;7.53;;
47455;SDS011;33202;48.512;-2.780;2024-03-22T03:06:04;9.65;;;7.28;;
47455;SDS011;33202;48.512;-2.780;2024-03-22T03:08:30;9.50;;;7.30;;
47455;SDS011;33202;48.512;-2.780;2024-03-22T03:10:56;9.93;;;7.45;;
47455;SDS011;33202;48.512;-2.780;2024-03-22T03:13:22;10.40;;;7.78;;
47455;SDS011;33202;48.512;-2.780;2024-03-22T03:15:48;11.52;;;7.18;;
47455;SDS011;33202;48.512;-2.780;2024-03-22T03:18:14;9.20;;;6.93;;
47455;SDS011;33202;48.512;-2.780;2024-03-22T03:20:40;11.02;;;7.10;;
47455;SDS011;33202;48.512;-2.780;2024-03-22T03:23:06;9.73;;;6.85;;
47455;SDS011;33202;48.512;-2.780;2024-03-22T03:25:33;9.90;;;7.23;;
47455;SDS011;33202;48.512;-2.780;2024-03-22T03:27:59;10.10;;;6.93;;
47455;SDS011;33202;48.512;-2.780;2024-03-22T03:30:25;9.55;;;7.03;;
47455;SDS011;33202;48.512;-2.780;2024-03-22T03:32:51;10.18;;;7.45;;
47455;SDS011;33202;48.512;-2.780;2024-03-22T03:35:17;9.63;;;7.10;;
47455;SDS011;33202;48.512;-2.780;2024-03-22T03:37:43;8.82;;;6.55;;
47455;SDS011;33202;48.512;-2.780;2024-03-22T03:40:09;10.38;;;7.25;;
47455;SDS011;33202;48.512;-2.780;2024-03-22T03:42:35;11.40;;;8.00;;
47455;SDS011;33202;48.512;-2.780;2024-03-22T03:45:01;10.35;;;7.95;;
47455;SDS011;33202;48.512;-2.780;2024-03-22T03:47:27;11.52;;;7.40;;
47455;SDS011;33202;48.512;-2.780;2024-03-22T03:49:53;10.55;;;7.75;;
47455;SDS011;33202;48.512;-2.780;2024-03-22T03:52:19;10.57;;;7.82;;
47455;SDS011;33202;48.512;-2.780;2024-03-22T03:54:45;12.88;;;8.05;;
47455;SDS011;33202;48.512;-2.780;2024-03-22T03:57:11;11.10;;;7.80;;
47455;SDS011;33202;48.512;-2.780;2024-03-22T03:59:37;11.45;;;8.50;;
47455;SDS011;33202;48.512;-2.780;2024-03-22T04:02:03;11.50;;;8.25;;
47455;SDS011;33202;48.512;-2.780;2024-03-22T04:04:29;11.00;;;8.02;;
47455;SDS011;33202;48.512;-2.780;2024-03-22T04:06:55;11.90;;;8.10;;
47455;SDS011;33202;48.512;-2.780;2024-03-22T04:09:21;10.38;;;7.30;;
47455;SDS011;33202;48.512;-2.780;2024-03-22T04:11:47;10.55;;;7.63;;
47455;SDS011;33202;48.512;-2.780;2024-03-22T04:14:13;10.55;;;7.70;;
47455;SDS011;33202;48.512;-2.780;2024-03-22T04:16:39;11.18;;;7.57;;
47455;SDS011;33202;48.512;-2.780;2024-03-22T04:19:05;11.45;;;7.78;;
47455;SDS011;33202;48.512;-2.780;2024-03-22T04:21:31;10.20;;;8.07;;
47455;SDS011;33202;48.512;-2.780;2024-03-22T04:23:57;10.13;;;7.32;;
47455;SDS011;33202;48.512;-2.780;2024-03-22T04:26:23;11.57;;;8.10;;
47455;SDS011;33202;48.512;-2.780;2024-03-22T04:28:49;10.15;;;7.43;;
47455;SDS011;33202;48.512;-2.780;2024-03-22T04:31:15;10.68;;;7.32;;
47455;SDS011;33202;48.512;-2.780;2024-03-22T04:33:41;11.05;;;7.85;;
47455;SDS011;33202;48.512;-2.780;2024-03-22T04:36:07;9.38;;;7.00;;
47455;SDS011;33202;48.512;-2.780;2024-03-22T04:38:36;10.48;;;7.40;;
47455;SDS011;33202;48.512;-2.780;2024-03-22T04:41:02;10.93;;;7.63;;
47455;SDS011;33202;48.512;-2.780;2024-03-22T04:43:28;9.63;;;7.28;;
47455;SDS011;33202;48.512;-2.780;2024-03-22T04:45:54;10.50;;;7.32;;
47455;SDS011;33202;48.512;-2.780;2024-03-22T04:48:20;9.43;;;6.72;;
47455;SDS011;33202;48.512;-2.780;2024-03-22T04:50:47;10.17;;;6.97;;
47455;SDS011;33202;48.512;-2.780;2024-03-22T04:53:16;9.15;;;6.55;;
47455;SDS011;33202;48.512;-2.780;2024-03-22T04:55:43;10.18;;;7.47;;
47455;SDS011;33202;48.512;-2.780;2024-03-22T04:58:11;10.95;;;8.07;;
47455;SDS011;33202;48.512;-2.780;2024-03-22T05:00:37;11.57;;;8.40;;
47455;SDS011;33202;48.512;-2.780;2024-03-22T05:03:03;13.68;;;8.88;;
47455;SDS011;33202;48.512;-2.780;2024-03-22T05:05:29;14.85;;;9.63;;
47455;SDS011;33202;48.512;-2.780;2024-03-22T05:07:55;14.35;;;9.35;;
47455;SDS011;33202;48.512;-2.780;2024-03-22T05:10:21;15.88;;;10.65;;
47455;SDS011;33202;48.512;-2.780;2024-03-22T05:12:47;15.23;;;9.98;;
47455;SDS011;33202;48.512;-2.780;2024-03-22T05:15:13;15.20;;;10.52;;
47455;SDS011;33202;48.512;-2.780;2024-03-22T05:17:39;14.98;;;9.93;;
47455;SDS011;33202;48.512;-2.780;2024-03-22T05:20:06;15.13;;;10.20;;
47455;SDS011;33202;48.512;-2.780;2024-03-22T05:22:36;13.48;;;9.60;;
47455;SDS011;33202;48.512;-2.780;2024-03-22T05:25:02;15.15;;;11.05;;
47455;SDS011;33202;48.512;-2.780;2024-03-22T05:27:30;14.40;;;9.68;;
47455;SDS011;33202;48.512;-2.780;2024-03-22T05:29:57;16.60;;;10.80;;
47455;SDS011;33202;48.512;-2.780;2024-03-22T05:32:23;17.05;;;10.38;;
47455;SDS011;33202;48.512;-2.780;2024-03-22T05:34:49;14.27;;;10.18;;
47455;SDS011;33202;48.512;-2.780;2024-03-22T05:37:16;14.35;;;10.07;;
47455;SDS011;33202;48.512;-2.780;2024-03-22T05:39:42;12.30;;;8.38;;
47455;SDS011;33202;48.512;-2.780;2024-03-22T05:42:08;13.55;;;8.95;;
47455;SDS011;33202;48.512;-2.780;2024-03-22T05:44:34;12.23;;;8.63;;
47455;SDS011;33202;48.512;-2.780;2024-03-22T05:47:00;11.60;;;8.55;;
47455;SDS011;33202;48.512;-2.780;2024-03-22T05:49:26;13.10;;;8.43;;
47455;SDS011;33202;48.512;-2.780;2024-03-22T05:51:52;11.88;;;7.97;;
47455;SDS011;33202;48.512;-2.780;2024-03-22T05:54:18;12.20;;;8.82;;
47455;SDS011;33202;48.512;-2.780;2024-03-22T05:56:45;12.82;;;8.85;;
47455;SDS011;33202;48.512;-2.780;2024-03-22T05:59:11;12.38;;;8.15;;
47455;SDS011;33202;48.512;-2.780;2024-03-22T06:01:37;10.70;;;7.50;;
47455;SDS011;33202;48.512;-2.780;2024-03-22T06:04:04;10.77;;;7.32;;
47455;SDS011;33202;48.512;-2.780;2024-03-22T06:06:31;9.98;;;7.50;;
47455;SDS011;33202;48.512;-2.780;2024-03-22T06:08:57;10.45;;;7.18;;
47455;SDS011;33202;48.512;-2.780;2024-03-22T06:11:25;9.98;;;7.07;;
47455;SDS011;33202;48.512;-2.780;2024-03-22T06:13:51;10.20;;;7.10;;
47455;SDS011;33202;48.512;-2.780;2024-03-22T06:16:17;8.73;;;6.15;;
47455;SDS011;33202;48.512;-2.780;2024-03-22T06:18:43;9.02;;;6.43;;
47455;SDS011;33202;48.512;-2.780;2024-03-22T06:21:09;8.68;;;6.25;;
47455;SDS011;33202;48.512;-2.780;2024-03-22T06:23:35;8.18;;;5.93;;
47455;SDS011;33202;48.512;-2.780;2024-03-22T06:26:01;9.15;;;6.47;;
47455;SDS011;33202;48.512;-2.780;2024-03-22T06:28:28;9.23;;;6.07;;
47455;SDS011;33202;48.512;-2.780;2024-03-22T06:30:54;10.43;;;7.03;;
47455;SDS011;33202;48.512;-2.780;2024-03-22T06:33:20;9.65;;;6.53;;
47455;SDS011;33202;48.512;-2.780;2024-03-22T06:35:46;9.05;;;6.85;;
47455;SDS011;33202;48.512;-2.780;2024-03-22T06:38:13;9.25;;;6.72;;
47455;SDS011;33202;48.512;-2.780;2024-03-22T06:40:39;9.98;;;6.38;;
47455;SDS011;33202;48.512;-2.780;2024-03-22T06:43:05;10.65;;;6.68;;
47455;SDS011;33202;48.512;-2.780;2024-03-22T06:45:31;9.48;;;7.13;;
47455;SDS011;33202;48.512;-2.780;2024-03-22T06:47:57;9.45;;;6.55;;
47455;SDS011;33202;48.512;-2.780;2024-03-22T06:50:23;9.18;;;6.80;;
47455;SDS011;33202;48.512;-2.780;2024-03-22T06:52:52;9.27;;;6.80;;
47455;SDS011;33202;48.512;-2.780;2024-03-22T06:55:18;11.98;;;7.18;;
47455;SDS011;33202;48.512;-2.780;2024-03-22T06:57:48;8.90;;;6.45;;
47455;SDS011;33202;48.512;-2.780;2024-03-22T07:00:14;10.23;;;7.05;;
47455;SDS011;33202;48.512;-2.780;2024-03-22T07:02:41;10.07;;;7.10;;
47455;SDS011;33202;48.512;-2.780;2024-03-22T07:05:07;11.07;;;7.15;;
47455;SDS011;33202;48.512;-2.780;2024-03-22T07:07:33;10.30;;;7.25;;
47455;SDS011;33202;48.512;-2.780;2024-03-22T07:10:00;11.23;;;7.47;;
47455;SDS011;33202;48.512;-2.780;2024-03-22T07:12:26;11.50;;;7.57;;
47455;SDS011;33202;48.512;-2.780;2024-03-22T07:14:52;9.77;;;7.40;;
47455;SDS011;33202;48.512;-2.780;2024-03-22T07:17:18;9.80;;;7.80;;
47455;SDS011;33202;48.512;-2.780;2024-03-22T07:19:49;10.68;;;7.93;;
47455;SDS011;33202;48.512;-2.780;2024-03-22T07:22:16;10.52;;;7.68;;
47455;SDS011;33202;48.512;-2.780;2024-03-22T07:24:42;12.48;;;8.45;;
47455;SDS011;33202;48.512;-2.780;2024-03-22T07:27:08;11.32;;;8.27;;
47455;SDS011;33202;48.512;-2.780;2024-03-22T07:29:35;10.88;;;7.32;;
47455;SDS011;33202;48.512;-2.780;2024-03-22T07:32:01;10.93;;;7.22;;
47455;SDS011;33202;48.512;-2.780;2024-03-22T07:34:28;11.67;;;8.27;;
47455;SDS011;33202;48.512;-2.780;2024-03-22T07:36:54;13.85;;;9.68;;
47455;SDS011;33202;48.512;-2.780;2024-03-22T07:39:20;11.50;;;8.52;;
47455;SDS011;33202;48.512;-2.780;2024-03-22T07:41:46;13.15;;;9.65;;
47455;SDS011;33202;48.512;-2.780;2024-03-22T07:44:12;12.38;;;8.85;;
47455;SDS011;33202;48.512;-2.780;2024-03-22T07:46:38;12.50;;;8.82;;
47455;SDS011;33202;48.512;-2.780;2024-03-22T07:49:04;12.07;;;8.75;;
47455;SDS011;33202;48.512;-2.780;2024-03-22T07:51:30;12.60;;;9.23;;
47455;SDS011;33202;48.512;-2.780;2024-03-22T07:53:56;13.60;;;9.05;;
47455;SDS011;33202;48.512;-2.780;2024-03-22T07:56:22;11.73;;;8.38;;
47455;SDS011;33202;48.512;-2.780;2024-03-22T07:58:48;12.63;;;9.18;;
47455;SDS011;33202;48.512;-2.780;2024-03-22T08:01:14;12.65;;;8.85;;
47455;SDS011;33202;48.512;-2.780;2024-03-22T08:03:42;14.23;;;9.30;;
47455;SDS011;33202;48.512;-2.780;2024-03-22T08:06:08;12.23;;;8.18;;
47455;SDS011;33202;48.512;-2.780;2024-03-22T08:08:34;13.18;;;9.55;;
47455;SDS011;33202;48.512;-2.780;2024-03-22T08:11:00;15.57;;;9.55;;
47455;SDS011;33202;48.512;-2.780;2024-03-22T08:13:26;13.15;;;9.00;;
47455;SDS011;33202;48.512;-2.780;2024-03-22T08:15:52;13.68;;;8.95;;
47455;SDS011;33202;48.512;-2.780;2024-03-22T08:18:18;13.18;;;8.77;;
47455;SDS011;33202;48.512;-2.780;2024-03-22T08:20:45;11.48;;;8.35;;
47455;SDS011;33202;48.512;-2.780;2024-03-22T08:23:11;11.20;;;8.15;;
47455;SDS011;33202;48.512;-2.780;2024-03-22T08:25:37;14.25;;;9.05;;
47455;SDS011;33202;48.512;-2.780;2024-03-22T08:28:03;13.88;;;8.75;;
47455;SDS011;33202;48.512;-2.780;2024-03-22T08:30:30;11.35;;;8.60;;
47455;SDS011;33202;48.512;-2.780;2024-03-22T08:32:55;12.95;;;8.63;;
47455;SDS011;33202;48.512;-2.780;2024-03-22T08:35:21;11.98;;;8.77;;
47455;SDS011;33202;48.512;-2.780;2024-03-22T08:37:47;11.15;;;8.27;;
47455;SDS011;33202;48.512;-2.780;2024-03-22T08:40:14;15.15;;;9.63;;
47455;SDS011;33202;48.512;-2.780;2024-03-22T08:42:40;13.32;;;8.77;;
47455;SDS011;33202;48.512;-2.780;2024-03-22T08:45:07;10.75;;;8.48;;
47455;SDS011;33202;48.512;-2.780;2024-03-22T08:47:33;11.43;;;8.23;;
47455;SDS011;33202;48.512;-2.780;2024-03-22T08:49:59;11.57;;;7.88;;
47455;SDS011;33202;48.512;-2.780;2024-03-22T08:52:25;10.85;;;8.02;;
47455;SDS011;33202;48.512;-2.780;2024-03-22T08:54:52;14.85;;;9.15;;
47455;SDS011;33202;48.512;-2.780;2024-03-22T08:57:18;11.52;;;8.68;;
47455;SDS011;33202;48.512;-2.780;2024-03-22T08:59:44;13.07;;;8.40;;
47455;SDS011;33202;48.512;-2.780;2024-03-22T09:02:10;13.52;;;9.30;;
47455;SDS011;33202;48.512;-2.780;2024-03-22T09:04:37;11.90;;;7.97;;
47455;SDS011;33202;48.512;-2.780;2024-03-22T09:07:03;12.18;;;8.00;;
47455;SDS011;33202;48.512;-2.780;2024-03-22T09:09:29;13.82;;;8.45;;
47455;SDS011;33202;48.512;-2.780;2024-03-22T09:11:55;10.90;;;7.85;;
47455;SDS011;33202;48.512;-2.780;2024-03-22T09:14:21;11.80;;;8.02;;
47455;SDS011;33202;48.512;-2.780;2024-03-22T09:16:47;13.70;;;8.48;;
47455;SDS011;33202;48.512;-2.780;2024-03-22T09:19:13;10.13;;;7.53;;
47455;SDS011;33202;48.512;-2.780;2024-03-22T09:21:39;15.57;;;8.75;;
47455;SDS011;33202;48.512;-2.780;2024-03-22T09:24:05;10.98;;;7.68;;
47455;SDS011;33202;48.512;-2.780;2024-03-22T09:26:32;12.60;;;8.32;;
47455;SDS011;33202;48.512;-2.780;2024-03-22T09:28:58;11.68;;;8.32;;
47455;SDS011;33202;48.512;-2.780;2024-03-22T09:31:24;10.25;;;7.88;;
47455;SDS011;33202;48.512;-2.780;2024-03-22T09:33:50;14.13;;;8.48;;
47455;SDS011;33202;48.512;-2.780;2024-03-22T09:36:16;11.00;;;7.85;;
47455;SDS011;33202;48.512;-2.780;2024-03-22T09:38:42;10.55;;;6.85;;
47455;SDS011;33202;48.512;-2.780;2024-03-22T09:41:08;13.52;;;7.78;;
47455;SDS011;33202;48.512;-2.780;2024-03-22T09:43:34;13.48;;;8.23;;
47455;SDS011;33202;48.512;-2.780;2024-03-22T09:46:01;11.25;;;7.90;;
47455;SDS011;33202;48.512;-2.780;2024-03-22T09:48:27;13.30;;;7.93;;
47455;SDS011;33202;48.512;-2.780;2024-03-22T09:50:54;12.25;;;7.95;;
47455;SDS011;33202;48.512;-2.780;2024-03-22T09:53:21;12.75;;;7.90;;
47455;SDS011;33202;48.512;-2.780;2024-03-22T09:55:51;10.27;;;6.90;;
47455;SDS011;33202;48.512;-2.780;2024-03-22T09:58:22;11.00;;;7.68;;
47455;SDS011;33202;48.512;-2.780;2024-03-22T10:00:48;11.20;;;7.05;;
47455;SDS011;33202;48.512;-2.780;2024-03-22T10:03:14;10.65;;;6.85;;
47455;SDS011;33202;48.512;-2.780;2024-03-22T10:05:40;10.77;;;7.07;;
47455;SDS011;33202;48.512;-2.780;2024-03-22T10:08:06;7.57;;;5.57;;
47455;SDS011;33202;48.512;-2.780;2024-03-22T10:10:33;8.68;;;6.15;;
47455;SDS011;33202;48.512;-2.780;2024-03-22T10:13:03;8.90;;;5.97;;
47455;SDS011;33202;48.512;-2.780;2024-03-22T10:15:32;8.40;;;5.30;;
47455;SDS011;33202;48.512;-2.780;2024-03-22T10:17:58;7.30;;;4.95;;
47455;SDS011;33202;48.512;-2.780;2024-03-22T10:20:24;8.15;;;5.68;;
47455;SDS011;33202;48.512;-2.780;2024-03-22T10:22:57;7.32;;;5.32;;
47455;SDS011;33202;48.512;-2.780;2024-03-22T10:25:23;6.95;;;5.18;;
47455;SDS011;33202;48.512;-2.780;2024-03-22T10:27:49;8.75;;;6.05;;
47455;SDS011;33202;48.512;-2.780;2024-03-22T10:30:16;6.95;;;5.60;;
47455;SDS011;33202;48.512;-2.780;2024-03-22T10:32:45;7.05;;;5.28;;
47455;SDS011;33202;48.512;-2.780;2024-03-22T10:35:11;8.93;;;4.97;;
47455;SDS011;33202;48.512;-2.780;2024-03-22T10:37:38;5.82;;;4.22;;
47455;SDS011;33202;48.512;-2.780;2024-03-22T10:40:04;4.95;;;3.63;;
47455;SDS011;33202;48.512;-2.780;2024-03-22T10:42:34;5.78;;;4.28;;
47455;SDS011;33202;48.512;-2.780;2024-03-22T10:45:04;5.93;;;4.22;;
47455;SDS011;33202;48.512;-2.780;2024-03-22T10:47:31;7.80;;;4.10;;
47455;SDS011;33202;48.512;-2.780;2024-03-22T10:50:00;6.72;;;4.30;;
47455;SDS011;33202;48.512;-2.780;2024-03-22T10:52:29;5.13;;;4.10;;
47455;SDS011;33202;48.512;-2.780;2024-03-22T10:54:55;7.70;;;3.92;;
47455;SDS011;33202;48.512;-2.780;2024-03-22T10:57:21;5.10;;;3.78;;
47455;SDS011;33202;48.512;-2.780;2024-03-22T10:59:47;6.45;;;4.07;;
47455;SDS011;33202;48.512;-2.780;2024-03-22T11:02:13;6.28;;;3.90;;
47455;SDS011;33202;48.512;-2.780;2024-03-22T11:04:42;5.93;;;3.95;;
47455;SDS011;33202;48.512;-2.780;2024-03-22T11:07:08;5.35;;;4.35;;
47455;SDS011;33202;48.512;-2.780;2024-03-22T11:09:35;5.28;;;4.13;;
47455;SDS011;33202;48.512;-2.780;2024-03-22T11:12:01;5.03;;;3.92;;
47455;SDS011;33202;48.512;-2.780;2024-03-22T11:14:29;5.82;;;3.65;;
47455;SDS011;33202;48.512;-2.780;2024-03-22T11:16:55;6.53;;;4.13;;
47455;SDS011;33202;48.512;-2.780;2024-03-22T11:19:21;7.60;;;3.45;;
47455;SDS011;33202;48.512;-2.780;2024-03-22T11:21:47;6.47;;;3.75;;
47455;SDS011;33202;48.512;-2.780;2024-03-22T11:24:14;7.07;;;4.20;;
47455;SDS011;33202;48.512;-2.780;2024-03-22T11:26:39;7.30;;;4.70;;
47455;SDS011;33202;48.512;-2.780;2024-03-22T11:29:06;5.28;;;3.60;;
47455;SDS011;33202;48.512;-2.780;2024-03-22T11:33:59;5.75;;;3.63;;
47455;SDS011;33202;48.512;-2.780;2024-03-22T11:36:25;5.00;;;3.63;;
47455;SDS011;33202;48.512;-2.780;2024-03-22T11:38:51;5.03;;;3.70;;
47455;SDS011;33202;48.512;-2.780;2024-03-22T11:41:26;7.05;;;4.28;;
47455;SDS011;33202;48.512;-2.780;2024-03-22T11:43:53;6.03;;;4.00;;
47455;SDS011;33202;48.512;-2.780;2024-03-22T11:46:19;7.50;;;4.20;;
47455;SDS011;33202;48.512;-2.780;2024-03-22T11:48:50;6.10;;;4.00;;
47455;SDS011;33202;48.512;-2.780;2024-03-22T11:51:16;5.63;;;3.45;;
47455;SDS011;33202;48.512;-2.780;2024-03-22T11:53:48;8.13;;;4.00;;
47455;SDS011;33202;48.512;-2.780;2024-03-22T11:56:17;5.97;;;3.85;;
47455;SDS011;33202;48.512;-2.780;2024-03-22T11:58:43;6.40;;;4.00;;
47455;SDS011;33202;48.512;-2.780;2024-03-22T12:01:09;5.43;;;4.15;;
47455;SDS011;33202;48.512;-2.780;2024-03-22T12:03:35;5.05;;;3.30;;
47455;SDS011;33202;48.512;-2.780;2024-03-22T12:06:01;5.88;;;3.88;;
47455;SDS011;33202;48.512;-2.780;2024-03-22T12:08:27;4.57;;;3.60;;
47455;SDS011;33202;48.512;-2.780;2024-03-22T12:10:53;4.10;;;3.40;;
47455;SDS011;33202;48.512;-2.780;2024-03-22T12:13:19;5.22;;;3.20;;
47455;SDS011;33202;48.512;-2.780;2024-03-22T12:15:45;4.85;;;3.20;;
47455;SDS011;33202;48.512;-2.780;2024-03-22T12:18:11;6.47;;;3.22;;
47455;SDS011;33202;48.512;-2.780;2024-03-22T12:20:36;5.25;;;3.58;;
47455;SDS011;33202;48.512;-2.780;2024-03-22T12:23:03;6.60;;;3.42;;
47455;SDS011;33202;48.512;-2.780;2024-03-22T12:25:29;5.97;;;3.30;;
47455;SDS011;33202;48.512;-2.780;2024-03-22T12:27:55;5.20;;;4.15;;
47455;SDS011;33202;48.512;-2.780;2024-03-22T12:30:21;6.55;;;4.93;;
47455;SDS011;33202;48.512;-2.780;2024-03-22T12:32:47;5.03;;;4.13;;
47455;SDS011;33202;48.512;-2.780;2024-03-22T12:35:13;7.75;;;4.13;;
47455;SDS011;33202;48.512;-2.780;2024-03-22T12:37:39;5.93;;;4.03;;
47455;SDS011;33202;48.512;-2.780;2024-03-22T12:40:05;8.40;;;4.10;;
47455;SDS011;33202;48.512;-2.780;2024-03-22T12:42:33;4.63;;;3.47;;
47455;SDS011;33202;48.512;-2.780;2024-03-22T12:44:59;4.78;;;3.08;;
47455;SDS011;33202;48.512;-2.780;2024-03-22T12:47:25;6.32;;;3.38;;
47455;SDS011;33202;48.512;-2.780;2024-03-22T12:49:51;4.60;;;3.03;;
47455;SDS011;33202;48.512;-2.780;2024-03-22T12:52:17;7.00;;;3.47;;
47455;SDS011;33202;48.512;-2.780;2024-03-22T12:54:43;4.85;;;3.30;;
47455;SDS011;33202;48.512;-2.780;2024-03-22T12:57:09;5.40;;;3.83;;
47455;SDS011;33202;48.512;-2.780;2024-03-22T12:59:36;5.07;;;4.10;;
47455;SDS011;33202;48.512;-2.780;2024-03-22T13:02:01;6.07;;;3.70;;
47455;SDS011;33202;48.512;-2.780;2024-03-22T13:04:27;8.38;;;3.85;;
47455;SDS011;33202;48.512;-2.780;2024-03-22T13:06:53;5.20;;;3.58;;
47455;SDS011;33202;48.512;-2.780;2024-03-22T13:09:20;5.40;;;3.22;;
47455;SDS011;33202;48.512;-2.780;2024-03-22T13:11:46;5.20;;;4.40;;
47455;SDS011;33202;48.512;-2.780;2024-03-22T13:14:13;6.65;;;4.00;;
47455;SDS011;33202;48.512;-2.780;2024-03-22T13:16:39;6.43;;;3.90;;
47455;SDS011;33202;48.512;-2.780;2024-03-22T13:19:05;7.15;;;4.47;;
47455;SDS011;33202;48.512;-2.780;2024-03-22T13:21:33;7.50;;;4.82;;
47455;SDS011;33202;48.512;-2.780;2024-03-22T13:23:59;5.85;;;4.63;;
47455;SDS011;33202;48.512;-2.780;2024-03-22T13:26:25;6.13;;;4.40;;
47455;SDS011;33202;48.512;-2.780;2024-03-22T13:28:51;7.03;;;4.60;;
47455;SDS011;33202;48.512;-2.780;2024-03-22T13:31:17;5.13;;;3.80;;
47455;SDS011;33202;48.512;-2.780;2024-03-22T13:33:43;8.13;;;4.75;;
47455;SDS011;33202;48.512;-2.780;2024-03-22T13:36:09;6.00;;;4.47;;
47455;SDS011;33202;48.512;-2.780;2024-03-22T13:38:35;7.57;;;4.65;;
47455;SDS011;33202;48.512;-2.780;2024-03-22T13:41:01;6.03;;;4.97;;
47455;SDS011;33202;48.512;-2.780;2024-03-22T13:43:29;8.50;;;5.60;;
47455;SDS011;33202;48.512;-2.780;2024-03-22T13:45:55;8.32;;;6.40;;
47455;SDS011;33202;48.512;-2.780;2024-03-22T13:48:22;8.77;;;5.82;;
47455;SDS011;33202;48.512;-2.780;2024-03-22T13:50:54;7.15;;;5.13;;
47455;SDS011;33202;48.512;-2.780;2024-03-22T13:53:21;7.72;;;5.40;;
47455;SDS011;33202;48.512;-2.780;2024-03-22T13:55:50;6.93;;;5.45;;
47455;SDS011;33202;48.512;-2.780;2024-03-22T13:58:20;7.47;;;5.43;;
47455;SDS011;33202;48.512;-2.780;2024-03-22T14:00:46;10.23;;;5.75;;
47455;SDS011;33202;48.512;-2.780;2024-03-22T14:03:12;8.23;;;6.17;;
47455;SDS011;33202;48.512;-2.780;2024-03-22T14:05:38;7.78;;;5.18;;
47455;SDS011;33202;48.512;-2.780;2024-03-22T14:08:04;5.65;;;4.38;;
47455;SDS011;33202;48.512;-2.780;2024-03-22T14:10:30;6.55;;;4.13;;
47455;SDS011;33202;48.512;-2.780;2024-03-22T14:12:57;6.40;;;4.40;;
47455;SDS011;33202;48.512;-2.780;2024-03-22T14:15:23;5.82;;;3.90;;
47455;SDS011;33202;48.512;-2.780;2024-03-22T14:17:51;6.63;;;3.90;;
47455;SDS011;33202;48.512;-2.780;2024-03-22T14:20:17;4.65;;;3.45;;
47455;SDS011;33202;48.512;-2.780;2024-03-22T14:22:43;3.67;;;2.00;;
47455;SDS011;33202;48.512;-2.780;2024-03-22T14:25:10;4.03;;;1.25;;
47455;SDS011;33202;48.512;-2.780;2024-03-22T14:27:36;4.90;;;0.73;;
47455;SDS011;33202;48.512;-2.780;2024-03-22T14:30:03;1.88;;;0.70;;
47455;SDS011;33202;48.512;-2.780;2024-03-22T14:32:34;4.07;;;0.98;;
47455;SDS011;33202;48.512;-2.780;2024-03-22T14:35:00;4.55;;;0.70;;
47455;SDS011;33202;48.512;-2.780;2024-03-22T14:37:27;7.60;;;1.25;;
47455;SDS011;33202;48.512;-2.780;2024-03-22T14:39:53;5.15;;;1.00;;
47455;SDS011;33202;48.512;-2.780;2024-03-22T14:42:19;3.05;;;0.80;;
47455;SDS011;33202;48.512;-2.780;2024-03-22T14:44:45;6.22;;;1.15;;
47455;SDS011;33202;48.512;-2.780;2024-03-22T14:47:11;4.40;;;1.40;;